Time;durP1;ratioP1;P1;durP2;ratioP2;P2;SDS_P1;SDS_P2;PMS_P1;PMS_P2;Temp;Humidity;BMP_temperature;BMP_pressure;BME280_temperature;BME280_humidity;BME280_pressure;Samples;Min_cycle;Max_cycle;Signal;HPM_P1;HPM_P2
2022/04/20 00:02:52;;;;;;;28.35;21.27;;;;;;;3.67;100.00;100058.28;4332823;22;10000658;-64
2022/04/20 00:05:18;;;;;;;26.67;20.88;;;;;;;3.50;100.00;100051.59;5030096;28;20041;-63
2022/04/20 00:07:43;;;;;;;28.77;21.98;;;;;;;3.45;100.00;100055.75;5017746;28;20048;-64
2022/04/20 00:10:09;;;;;;;28.60;20.75;;;;;;;3.49;100.00;99997.13;5009203;28;20112;-63
2022/04/20 00:12:34;;;;;;;26.95;20.70;;;;;;;3.26;100.00;99998.78;5020031;28;20426;-63
2022/04/20 00:15:00;;;;;;;28.45;21.10;;;;;;;3.31;100.00;100049.84;5030229;28;20487;-64
2022/04/20 00:17:25;;;;;;;27.30;20.98;;;;;;;3.60;100.00;100061.63;5030092;28;20033;-64
2022/04/20 00:19:51;;;;;;;26.77;20.98;;;;;;;3.34;100.00;100016.38;5029197;28;20029;-64
2022/04/20 00:22:16;;;;;;;30.30;23.48;;;;;;;3.71;100.00;100049.91;5029231;28;20112;-64
2022/04/20 00:24:42;;;;;;;30.42;23.10;;;;;;;3.51;100.00;100045.72;5030142;28;20400;-63
2022/04/20 00:27:07;;;;;;;30.20;22.52;;;;;;;3.10;100.00;99983.69;5028956;28;20083;-64
2022/04/20 00:29:33;;;;;;;29.90;22.83;;;;;;;3.42;100.00;100005.50;5030457;28;20087;-64
2022/04/20 00:31:58;;;;;;;27.90;22.30;;;;;;;3.78;100.00;100056.63;5028940;28;20037;-64
2022/04/20 00:34:23;;;;;;;28.45;22.80;;;;;;;3.05;100.00;100006.25;5030175;28;20052;-65
2022/04/20 00:36:53;;;;;;;30.05;23.00;;;;;;;3.24;100.00;100048.19;5029352;28;20026;-64
2022/04/20 00:39:20;;;;;;;30.02;23.38;;;;;;;3.46;100.00;100061.63;5029034;28;20026;-64
2022/04/20 00:41:45;;;;;;;30.48;23.67;;;;;;;3.68;100.00;100063.31;5030194;28;20434;-64
2022/04/20 00:44:11;;;;;;;29.25;21.75;;;;;;;3.40;100.00;100034.81;5029905;28;20038;-64
2022/04/20 00:46:37;;;;;;;32.28;23.05;;;;;;;3.20;100.00;100058.19;5030314;28;20044;-63
2022/04/20 00:49:04;;;;;;;30.33;22.92;;;;;;;2.73;100.00;99991.94;5028848;28;20483;-63
2022/04/20 00:51:30;;;;;;;30.90;22.73;;;;;;;2.50;100.00;100004.38;5029900;28;20128;-64
2022/04/20 00:54:00;;;;;;;31.15;22.80;;;;;;;2.89;100.00;100051.41;5028690;28;20025;-64
2022/04/20 00:56:26;;;;;;;28.73;21.98;;;;;;;3.17;100.00;100038.94;5029026;28;20033;-64
2022/04/20 00:58:53;;;;;;;28.42;21.92;;;;;;;2.22;100.00;99952.44;5029493;28;20032;-64
2022/04/20 01:01:20;;;;;;;27.75;21.35;;;;;;;2.46;100.00;99991.00;5028850;28;20029;-64
2022/04/20 01:03:45;;;;;;;28.67;22.25;;;;;;;3.49;100.00;100046.53;5030046;28;20049;-64
2022/04/20 01:06:10;;;;;;;27.98;22.13;;;;;;;2.58;100.00;99938.38;5028544;28;20026;-63
2022/04/20 01:08:36;;;;;;;28.55;21.40;;;;;;;2.97;100.00;99992.84;5030140;28;20021;-64
2022/04/20 01:11:02;;;;;;;29.45;22.70;;;;;;;2.90;100.00;100025.47;5030036;28;20026;-64
2022/04/20 01:13:28;;;;;;;27.17;21.42;;;;;;;3.35;100.00;100051.53;5029439;28;20108;-64
2022/04/20 01:15:54;;;;;;;29.67;21.92;;;;;;;2.71;100.00;99950.97;5030206;28;20117;-63
2022/04/20 01:18:19;;;;;;;29.98;22.02;;;;;;;2.74;100.00;99989.44;5031286;28;20037;-63
2022/04/20 01:20:45;;;;;;;29.42;22.27;;;;;;;2.91;100.00;99997.03;5033314;28;20025;-63
2022/04/20 01:23:11;;;;;;;28.10;20.77;;;;;;;3.38;100.00;100060.75;5033417;28;20064;-64
2022/04/20 01:25:37;;;;;;;27.52;20.92;;;;;;;3.37;100.00;100054.88;5029843;28;20041;-63
2022/04/20 01:28:04;;;;;;;26.60;20.50;;;;;;;3.31;100.00;100059.06;5027572;28;20099;-63
2022/04/20 01:30:30;;;;;;;24.95;20.20;;;;;;;2.87;100.00;100001.22;5033440;28;20029;-63
2022/04/20 01:32:56;;;;;;;24.02;19.40;;;;;;;3.17;100.00;100050.66;5031900;28;20025;-63
2022/04/20 01:35:22;;;;;;;23.30;18.95;;;;;;;2.86;100.00;100001.19;5033261;28;20030;-63
2022/04/20 01:37:49;;;;;;;27.02;19.05;;;;;;;3.15;100.00;100050.66;5031929;28;20029;-64
2022/04/20 01:40:15;;;;;;;23.45;18.50;;;;;;;3.31;100.00;100043.97;5032936;28;20431;-64
2022/04/20 01:42:40;;;;;;;22.95;18.00;;;;;;;3.36;100.00;100053.22;5030992;28;20030;-64
2022/04/20 01:45:06;;;;;;;21.48;17.52;;;;;;;2.97;100.00;100007.91;5031697;28;20099;-63
2022/04/20 01:47:31;;;;;;;22.88;18.48;;;;;;;3.01;100.00;100022.13;5031091;28;20030;-64
2022/04/20 01:49:56;;;;;;;21.60;17.35;;;;;;;3.42;100.00;100040.69;5031291;28;20442;-63
2022/04/20 01:52:22;;;;;;;23.73;18.88;;;;;;;2.67;100.00;99945.91;5032191;28;20041;-64
2022/04/20 01:54:47;;;;;;;24.33;18.35;;;;;;;3.06;100.00;99937.66;5031154;28;20487;-63
2022/04/20 01:57:13;;;;;;;24.80;20.27;;;;;;;3.43;100.00;100044.00;5032297;28;20124;-64
2022/04/20 01:59:38;;;;;;;26.90;21.05;;;;;;;2.90;100.00;99982.78;5032836;28;20033;-63
2022/04/20 02:04:48;;;;;;;26.10;19.85;;;;;;;3.35;100.00;100053.19;5032330;28;20115;-64
2022/04/20 02:07:13;;;;;;;29.00;21.27;;;;;;;3.19;100.00;100029.72;5032371;28;20479;-64
2022/04/20 02:09:39;;;;;;;31.15;22.38;;;;;;;3.07;100.00;100052.28;5032399;28;20033;-64
2022/04/20 02:12:05;;;;;;;28.80;22.23;;;;;;;3.04;100.00;100028.84;5032380;28;20045;-64
2022/04/20 02:14:30;;;;;;;28.73;21.60;;;;;;;3.39;100.00;100034.78;5030967;28;20025;-65
2022/04/20 02:16:56;;;;;;;31.30;22.88;;;;;;;2.78;100.00;99988.63;5031253;28;20118;-63
2022/04/20 02:19:21;;;;;;;29.90;22.63;;;;;;;2.87;100.00;100021.28;5032523;28;20033;-63
2022/04/20 02:21:47;;;;;;;30.92;22.80;;;;;;;2.16;100.00;99980.00;5032060;28;20040;-64
2022/04/20 02:24:13;;;;;;;32.67;23.70;;;;;;;2.35;100.00;99990.13;5030815;28;20187;-64
2022/04/20 02:26:39;;;;;;;32.42;24.52;;;;;;;2.52;100.00;99975.13;5032223;28;20056;-64
2022/04/20 02:29:05;;;;;;;31.40;23.83;;;;;;;2.95;100.00;100037.19;5030731;28;20528;-64
2022/04/20 02:31:30;;;;;;;33.47;22.02;;;;;;;2.73;100.00;100037.97;5032032;28;20483;-66
2022/04/20 02:33:56;;;;;;;30.45;22.50;;;;;;;2.67;100.00;100032.91;5031882;28;20423;-64
2022/04/20 02:36:21;;;;;;;34.78;23.92;;;;;;;2.17;100.00;99974.97;5031866;28;20029;-64
2022/04/20 02:38:47;;;;;;;33.92;22.58;;;;;;;2.47;100.00;99999.38;5030798;28;20030;-65
2022/04/20 02:41:14;;;;;;;32.38;22.42;;;;;;;2.61;100.00;100032.88;5031958;28;20076;-63
2022/04/20 02:43:39;;;;;;;34.20;23.60;;;;;;;2.64;100.00;100006.13;5031932;28;20483;-64
2022/04/20 02:46:05;;;;;;;35.30;24.40;;;;;;;2.37;100.00;100038.63;5032015;28;20125;-63
2022/04/20 02:48:31;;;;;;;34.95;23.13;;;;;;;2.19;100.00;99980.00;5032135;28;20471;-64
2022/04/20 02:50:56;;;;;;;29.00;21.02;;;;;;;2.17;100.00;99985.00;5031556;28;20083;-64
2022/04/20 02:53:22;;;;;;;33.30;21.77;;;;;;;2.12;100.00;99965.75;5031087;28;20047;-64
2022/04/20 02:55:47;;;;;;;35.97;23.73;;;;;;;2.08;100.00;100024.22;5031175;28;20036;-63
2022/04/20 02:58:13;;;;;;;34.33;23.45;;;;;;;2.77;100.00;100056.38;5031621;28;20026;-64
2022/04/20 03:00:39;;;;;;;53.95;34.88;;;;;;;1.41;100.00;99948.56;5031657;28;20037;-64
2022/04/20 03:03:05;;;;;;;45.70;33.80;;;;;;;2.64;100.00;100036.25;5031349;28;20049;-64
2022/04/20 03:05:30;;;;;;;34.72;26.10;;;;;;;2.82;100.00;100043.00;5031414;28;20060;-64
2022/04/20 03:07:56;;;;;;;31.38;21.55;;;;;;;2.16;100.00;100045.16;5030038;28;20025;-63
2022/04/20 03:10:25;;;;;;;30.13;20.48;;;;;;;1.77;100.00;99985.56;5029813;28;20539;-63
2022/04/20 03:12:51;;;;;;;27.73;20.45;;;;;;;2.54;100.00;100046.22;5031207;28;20033;-64
2022/04/20 03:15:17;;;;;;;26.83;20.67;;;;;;;2.36;100.00;100048.63;5030600;28;20423;-64
2022/04/20 03:17:42;;;;;;;27.23;19.95;;;;;;;2.20;100.00;100010.06;5031198;28;20025;-64
2022/04/20 03:20:08;;;;;;;22.80;17.45;;;;;;;2.14;100.00;100017.56;5031246;28;20467;-64
2022/04/20 03:22:33;;;;;;;21.17;17.52;;;;;;;2.29;100.00;100055.28;5031182;28;20038;-64
2022/04/20 03:24:59;;;;;;;21.63;17.75;;;;;;;1.91;100.00;100060.84;5029628;28;20031;-64
2022/04/20 03:27:24;;;;;;;22.27;16.83;;;;;;;1.78;100.00;100004.81;5031211;28;20037;-64
2022/04/20 03:29:49;;;;;;;22.35;16.92;;;;;;;1.91;100.00;100058.34;5029828;28;20045;-63
2022/04/20 03:32:16;;;;;;;20.10;16.25;;;;;;;1.96;100.00;100032.47;5031117;28;20468;-64
2022/04/20 03:34:42;;;;;;;22.65;17.20;;;;;;;1.82;100.00;100013.16;5030911;28;20031;-64
2022/04/20 03:37:12;;;;;;;21.90;17.63;;;;;;;1.72;100.00;100004.75;5030296;28;20095;-63
2022/04/20 03:39:38;;;;;;;22.70;17.40;;;;;;;2.52;100.00;100067.94;5030848;28;20037;-63
2022/04/20 03:42:04;;;;;;;23.52;17.90;;;;;;;2.12;100.00;100071.03;5029049;28;20041;-63
2022/04/20 03:44:31;;;;;;;22.42;17.55;;;;;;;2.07;100.00;100043.44;5031079;28;20025;-63
2022/04/20 03:46:56;;;;;;;32.60;23.33;;;;;;;2.08;100.00;100019.22;5031145;28;20053;-63
2022/04/20 03:49:22;;;;;;;32.40;22.35;;;;;;;2.32;100.00;100026.84;5030461;28;20025;-63
2022/04/20 03:51:47;;;;;;;37.20;24.88;;;;;;;2.60;100.00;100091.41;5024671;28;20022;-63
2022/04/20 03:54:13;;;;;;;40.63;27.63;;;;;;;2.14;100.00;100030.09;5029903;28;20042;-63
2022/04/20 03:59:22;;;;;;;42.45;27.90;;;;;;;1.87;100.00;100095.06;5029811;28;20047;-64
2022/04/20 04:01:49;;;;;;;34.90;25.27;;;;;;;2.30;100.00;100088.69;5030056;28;20538;-63
2022/04/20 04:04:14;;;;;;;35.45;24.63;;;;;;;1.89;100.00;100035.78;5030148;28;20017;-63
2022/04/20 04:06:40;;;;;;;33.17;24.25;;;;;;;2.20;100.00;100092.81;5030295;28;20468;-64
2022/04/20 04:09:05;;;;;;;37.55;27.05;;;;;;;1.92;100.00;100052.50;5030245;28;20379;-64
2022/04/20 04:11:31;;;;;;;70.15;41.95;;;;;;;2.08;100.00;100090.22;5030373;28;20036;-63
2022/04/20 04:13:56;;;;;;;50.05;31.30;;;;;;;1.72;100.00;100038.13;5029982;28;20032;-63
2022/04/20 04:16:21;;;;;;;32.92;22.17;;;;;;;1.74;100.00;100104.13;5030649;28;20025;-63
2022/04/20 04:18:47;;;;;;;28.60;19.73;;;;;;;1.80;100.00;100105.88;5028813;28;20048;-63
2022/04/20 04:21:12;;;;;;;78.38;25.83;;;;;;;1.42;100.00;100057.06;5029353;28;20166;-63
2022/04/20 04:23:38;;;;;;;45.05;24.08;;;;;;;1.91;100.00;100059.19;5030246;28;20029;-62
2022/04/20 04:26:03;;;;;;;62.47;26.45;;;;;;;1.85;100.00;100056.63;5030430;28;20383;-63
2022/04/20 04:28:29;;;;;;;76.40;25.73;;;;;;;1.84;100.00;100089.19;5030317;28;20407;-63
2022/04/20 04:30:54;;;;;;;77.97;25.75;;;;;;;2.01;100.00;100093.50;5029077;28;20485;-63
2022/04/20 04:33:20;;;;;;;70.13;23.85;;;;;;;2.25;100.00;100097.88;5029875;28;20029;-63
2022/04/20 04:35:45;;;;;;;68.75;24.13;;;;;;;2.05;100.00;100090.22;5030137;28;20030;-63
2022/04/20 04:38:11;;;;;;;38.40;22.73;;;;;;;2.67;100.00;100109.00;5028762;28;20029;-64
2022/04/20 04:40:36;;;;;;;40.97;24.42;;;;;;;2.24;100.00;100071.13;5030289;28;20064;-62
2022/04/20 04:43:02;;;;;;;42.05;27.38;;;;;;;2.77;100.00;100084.81;5028621;28;20022;-62
2022/04/20 04:50:55;;;;;;;44.22;24.13;;;;;;;2.01;100.00;100072.63;5029919;28;20071;-64
2022/04/20 04:53:21;;;;;;;53.83;21.02;;;;;;;2.08;100.00;100102.75;5029985;28;20596;-63
2022/04/20 04:55:46;;;;;;;44.22;20.50;;;;;;;1.29;100.00;100058.59;5030965;28;20037;-64
2022/04/20 04:58:12;;;;;;;31.77;22.38;;;;;;;2.52;100.00;100098.91;5031856;28;20029;-62
2022/04/20 05:00:38;;;;;;;29.02;21.15;;;;;;;2.66;100.00;100104.00;5031379;28;20075;-65
2022/04/20 05:03:03;;;;;;;47.22;34.67;;;;;;;3.28;100.00;100100.09;5032714;28;20049;-63
2022/04/20 05:05:29;;;;;;;53.90;41.67;;;;;;;2.91;100.00;100007.88;5031637;28;20407;-63
2022/04/20 05:07:54;;;;;;;82.10;60.45;;;;;;;2.71;100.00;100059.69;5030341;28;20032;-63
2022/04/20 05:10:21;;;;;;;88.65;60.50;;;;;;;3.07;100.00;100059.00;5031786;28;20065;-63
2022/04/20 05:12:47;;;;;;;165.05;103.95;;;;;;;3.74;100.00;100106.06;5033064;28;20030;-63
2022/04/20 05:15:13;;;;;;;133.98;73.68;;;;;;;2.73;100.00;100123.28;5032793;28;20044;-63
2022/04/20 05:17:38;;;;;;;92.70;40.38;;;;;;;2.24;100.00;100061.91;5032919;28;20053;-62
2022/04/20 05:20:04;;;;;;;59.50;35.17;;;;;;;2.44;100.00;100082.09;5031560;28;20037;-62
2022/04/20 05:22:30;;;;;;;43.65;28.42;;;;;;;2.96;100.00;100126.75;5031531;28;20029;-63
2022/04/20 05:24:55;;;;;;;46.55;30.88;;;;;;;2.54;100.00;100043.72;5032817;28;20551;-63
2022/04/20 05:27:21;;;;;;;39.17;26.48;;;;;;;3.12;100.00;100105.91;5032963;28;20037;-63
2022/04/20 05:29:46;;;;;;;35.05;25.90;;;;;;;3.70;100.00;100116.09;5033442;28;20120;-63
2022/04/20 05:32:12;;;;;;;31.50;25.95;;;;;;;3.21;100.00;100063.22;5033035;28;20506;-63
2022/04/20 05:34:38;;;;;;;29.83;25.65;;;;;;;3.84;100.00;100059.16;5033004;28;20021;-63
2022/04/20 05:42:49;;;;;;;24.55;21.85;;;;;;;4.58;100.00;100115.25;5029458;28;20168;-63
2022/04/20 05:45:15;;;;;;;35.00;30.90;;;;;;;4.72;100.00;100068.22;5031694;28;20080;-63
2022/04/20 05:47:41;;;;;;;29.00;25.08;;;;;;;4.85;100.00;100140.34;5033140;28;20025;-62
2022/04/20 05:50:06;;;;;;;25.83;21.80;;;;;;;4.94;100.00;100053.88;5031661;28;20033;-63
2022/04/20 05:52:32;;;;;;;30.50;25.65;;;;;;;5.49;100.00;100100.63;5032596;28;20475;-63
2022/04/20 05:54:57;;;;;;;35.45;26.88;;;;;;;5.15;100.00;100076.47;5032448;28;20042;-63
2022/04/20 05:57:24;;;;;;;30.73;21.83;;;;;;;5.65;100.00;100144.25;5032703;28;20060;-63
2022/04/20 05:59:49;;;;;;;29.92;25.63;;;;;;;6.19;100.00;100151.50;5032624;28;20028;-63
2022/04/20 06:02:14;;;;;;;25.55;20.50;;;;;;;5.78;100.00;100091.22;5032728;28;20046;-63
2022/04/20 06:04:40;;;;;;;23.90;18.50;;;;;;;6.21;100.00;100139.69;5032299;28;20545;-63
2022/04/20 06:07:06;;;;;;;37.80;33.58;;;;;;;5.62;100.00;100036.69;5032893;28;20056;-64
2022/04/20 06:09:32;;;;;;;44.05;39.40;;;;;;;6.27;100.00;100058.88;5032239;28;20025;-64
2022/04/20 06:11:57;;;;;;;28.05;20.77;;;;;;;6.11;100.00;100096.03;5032411;28;20091;-63
2022/04/20 06:14:23;;;;;;;28.70;22.08;;;;;;;6.46;100.00;100130.22;5032594;28;20037;-63
2022/04/20 06:16:48;;;;;;;33.70;25.83;;;;;;;6.79;100.00;100112.22;5032303;28;20562;-63
2022/04/20 06:19:14;;;;;;;32.65;25.08;;;;;;;7.11;100.00;100069.72;5032395;28;20064;-63
2022/04/20 06:21:39;;;;;;;28.45;22.85;;;;;;;7.33;100.00;100063.53;5030722;28;20467;-63
2022/04/20 06:24:05;;;;;;;26.77;22.63;;;;;;;7.75;100.00;100094.97;5032169;28;20029;-64
2022/04/20 06:26:30;;;;;;;29.85;23.73;;;;;;;7.54;100.00;100017.72;5032354;28;20033;-63
2022/04/20 06:28:56;;;;;;;23.13;20.60;;;;;;;8.28;100.00;100117.78;5031869;28;20541;-63
2022/04/20 06:31:21;;;;;;;21.70;19.35;;;;;;;7.86;100.00;100030.69;5032212;28;20037;-64
2022/04/20 06:33:47;;;;;;;22.48;18.88;;;;;;;7.90;100.00;100115.00;5032485;28;20037;-63
2022/04/20 06:36:12;;;;;;;22.17;17.73;;;;;;;9.00;100.00;100122.38;5031854;28;20037;-64
2022/04/20 06:38:38;;;;;;;19.52;17.10;;;;;;;7.85;100.00;100048.41;5030513;28;20499;-64
2022/04/20 06:41:03;;;;;;;23.05;17.98;;;;;;;9.42;100.00;100086.88;5031914;28;20460;-64
2022/04/20 06:43:29;;;;;;;22.45;18.50;;;;;;;9.00;100.00;100071.69;5031849;28;20106;-65
2022/04/20 06:45:54;;;;;;;23.55;19.40;;;;;;;9.21;100.00;100110.13;5030608;28;20418;-65
2022/04/20 06:48:20;;;;;;;21.88;18.35;;;;;;;8.73;100.00;100109.38;5031728;28;20033;-66
2022/04/20 06:50:46;;;;;;;19.45;16.08;;;;;;;7.07;100.00;100105.19;5031943;28;20040;-65
2022/04/20 06:58:41;;;;;;;21.85;17.67;;;;;;;8.46;100.00;100114.94;5031494;28;20425;-62
2022/04/20 07:01:07;;;;;;;20.02;17.80;;;;;;;7.95;100.00;100105.63;5031023;28;20032;-64
2022/04/20 07:03:34;;;;;;;21.98;16.63;;;;;;;8.96;100.00;100052.31;5029417;28;20060;-65
2022/04/20 07:06:00;;;;;;;23.65;17.70;;;;;;;9.73;100.00;100097.16;5030619;28;20037;-66
2022/04/20 07:08:26;;;;;;;19.63;17.52;;;;;;;8.69;100.00;100107.75;5030492;28;20044;-62
2022/04/20 07:10:53;;;;;;;20.77;17.55;;;;;;;8.13;100.00;100112.94;5031247;28;20089;-63
2022/04/20 07:13:19;;;;;;;18.45;16.25;;;;;;;9.10;100.00;100101.06;5031359;28;20060;-62
2022/04/20 07:15:45;;;;;;;18.45;16.45;;;;;;;8.89;100.00;100084.59;5030041;28;20507;-63
2022/04/20 07:18:10;;;;;;;21.23;18.05;;;;;;;9.15;100.00;100043.50;5029835;28;20057;-62
2022/04/20 07:20:36;;;;;;;20.67;17.35;;;;;;;9.11;100.00;100097.69;5030674;28;20120;-62
2022/04/20 07:23:01;;;;;;;20.20;15.73;;;;;;;8.60;100.00;100100.34;5030962;28;20041;-62
2022/04/20 07:25:29;;;;;;;18.42;16.30;;;;;;;8.32;100.00;100105.94;5029542;28;20040;-63
2022/04/20 07:27:55;;;;;;;21.15;16.63;;;;;;;8.50;100.00;100057.44;5029681;28;20025;-62
2022/04/20 07:30:20;;;;;;;25.90;19.95;;;;;;;8.78;100.00;100099.16;5029643;28;20032;-63
2022/04/20 07:32:47;;;;;;;23.27;19.10;;;;;;;8.63;100.00;100072.41;4673131;28;10000017;-65
2022/04/20 07:35:12;;;;;;;22.25;17.77;;;;;;;8.94;100.00;100082.78;5004788;28;20061;-66
2022/04/20 07:37:37;;;;;;;22.17;18.20;;;;;;;9.15;100.00;100040.97;5007301;28;20489;-66
2022/04/20 07:40:03;;;;;;;15.65;13.70;;;;;;;8.91;100.00;100044.84;5007935;28;20479;-65
2022/04/20 07:42:29;;;;;;;16.92;14.13;;;;;;;9.18;100.00;100053.56;5007557;28;20595;-66
2022/04/20 07:44:56;;;;;;;17.27;14.60;;;;;;;9.09;100.00;100046.16;5007147;28;20462;-65
2022/04/20 07:47:27;;;;;;;22.70;16.42;;;;;;;10.02;100.00;100101.56;5007617;28;20041;-66
2022/04/20 07:52:42;;;;;;;20.73;15.43;;;;;;;9.63;100.00;100080.47;5007414;28;20052;-66
2022/04/20 07:55:12;;;;;;;17.73;14.38;;;;;;;9.18;100.00;100082.31;5007260;28;20033;-64
2022/04/20 07:57:38;;;;;;;16.13;13.80;;;;;;;9.17;100.00;100072.19;5007124;28;20058;-64
2022/04/20 08:00:07;;;;;;;16.35;14.40;;;;;;;10.18;100.00;100067.34;5007253;28;20072;-67
2022/04/20 08:02:33;;;;;;;17.13;14.77;;;;;;;9.39;100.00;100050.56;5006899;28;20050;-67
2022/04/20 08:04:58;;;;;;;16.55;13.90;;;;;;;9.11;100.00;99983.56;5005925;28;20025;-66
2022/04/20 08:07:24;;;;;;;21.23;15.55;;;;;;;9.03;100.00;100008.25;5007300;28;20065;-66
2022/04/20 08:09:49;;;;;;;21.50;15.23;;;;;;;9.82;100.00;100053.81;5006653;28;20490;-67
2022/04/20 08:12:15;;;;;;;17.02;14.20;;;;;;;9.18;100.00;100030.72;5005999;28;20029;-65
2022/04/20 08:14:40;;;;;;;16.77;14.98;;;;;;;9.76;100.00;100008.25;5006952;28;20528;-65
2022/04/20 08:17:06;;;;;;;19.17;15.95;;;;;;;9.92;100.00;100031.56;5006925;28;20034;-65
2022/04/20 08:19:31;;;;;;;25.35;17.50;;;;;;;10.62;100.00;100061.13;5007210;28;20037;-66
2022/04/20 08:21:58;;;;;;;20.30;16.95;;;;;;;10.31;100.00;100053.44;5006547;28;20030;-66
2022/04/20 08:24:24;;;;;;;19.77;16.90;;;;;;;10.16;100.00;100054.66;5007015;28;20041;-66
2022/04/20 08:26:49;;;;;;;25.55;18.73;;;;;;;10.12;100.00;100019.22;5007908;28;20030;-66
2022/04/20 08:29:15;;;;;;;20.50;16.75;;;;;;;9.02;100.00;100012.47;5009251;28;20480;-65
2022/04/20 08:31:41;;;;;;;22.33;18.10;;;;;;;10.15;100.00;100042.84;5010675;28;20486;-67
2022/04/20 08:34:06;;;;;;;34.75;25.42;;;;;;;9.51;100.00;100010.53;5028920;28;20041;-65
2022/04/20 08:36:32;;;;;;;21.10;17.85;;;;;;;9.63;100.00;100056.81;5030790;28;20028;-65
2022/04/20 08:38:57;;;;;;;21.65;17.02;;;;;;;9.35;100.00;100057.41;5030686;28;20112;-65
2022/04/20 08:41:23;;;;;;;21.20;17.38;;;;;;;8.54;100.00;99990.66;5030602;28;20037;-65
2022/04/20 08:43:48;;;;;;;19.17;15.63;;;;;;;8.72;100.00;99991.13;5028426;28;20040;-66
2022/04/20 08:46:16;;;;;;;20.70;17.05;;;;;;;9.33;100.00;100033.78;5030238;28;20136;-66
2022/04/20 08:48:42;;;;;;;16.40;14.50;;;;;;;9.81;100.00;100058.91;5030286;28;20095;-67
2022/04/20 08:51:08;;;;;;;16.17;13.73;;;;;;;10.01;100.00;100057.56;5030050;28;20052;-66
2022/04/20 08:53:35;;;;;;;17.52;14.45;;;;;;;9.63;100.00;100031.44;5030277;28;20040;-66
2022/04/20 08:58:48;;;;;;;15.07;12.70;;;;;;;9.82;100.00;100030.94;5030170;28;20632;-65
2022/04/20 09:01:16;;;;;;;14.88;12.18;;;;;;;9.80;100.00;100078.41;5028883;28;20037;-66
2022/04/20 09:03:48;;;;;;;15.77;13.85;;;;;;;9.83;100.00;100032.59;5028430;28;20057;-64
2022/04/20 09:06:15;;;;;;;15.40;13.00;;;;;;;9.75;100.00;100044.66;5030068;28;20030;-64
2022/04/20 09:08:40;;;;;;;14.70;13.20;;;;;;;10.26;100.00;100068.00;5029573;28;20037;-66
2022/04/20 09:11:06;;;;;;;16.83;14.70;;;;;;;9.76;100.00;99976.94;5029882;28;20034;-65
2022/04/20 09:13:35;;;;;;;17.33;13.93;;;;;;;9.91;100.00;100032.41;5028665;28;20021;-66
2022/04/20 09:16:06;;;;;;;21.90;15.93;;;;;;;10.10;100.00;100077.66;5029764;28;20030;-66
2022/04/20 09:18:31;;;;;;;15.68;13.75;;;;;;;9.89;100.00;100024.84;5029879;28;20040;-66
2022/04/20 09:21:12;;;;;;;18.30;15.73;;;;;;;9.79;100.00;100078.41;5029545;28;20021;-65
2022/04/20 09:23:39;;;;;;;16.45;14.75;;;;;;;9.43;100.00;99987.03;5030228;28;20032;-65
2022/04/20 09:26:11;;;;;;;19.00;14.07;;;;;;;10.40;100.00;100081.16;5029788;28;20032;-65
2022/04/20 09:28:39;;;;;;;16.77;15.07;;;;;;;9.65;100.00;100017.00;5029895;28;20539;-65
2022/04/20 09:31:07;;;;;;;17.55;14.25;;;;;;;10.12;100.00;100077.66;5030522;28;20665;-65
2022/04/20 09:33:49;;;;;;;18.35;14.02;;;;;;;9.86;100.00;100068.09;5015777;28;20033;-65
2022/04/20 09:36:14;;;;;;;;;;;;;;;10.49;100.00;100075.84;5010552;28;20483;-65
2022/04/20 09:38:59;;;;;;;17.02;13.85;;;;;;;10.04;100.00;100070.16;5008699;28;19917;-66
2022/04/20 09:41:25;;;;;;;16.90;15.10;;;;;;;10.37;100.00;100054.13;5008253;28;20435;-66
2022/04/20 09:44:07;;;;;;;17.33;14.38;;;;;;;9.94;100.00;100010.34;5009371;28;20541;-65
2022/04/20 09:49:34;;;;;;;22.77;19.80;;;;;;;10.30;100.00;100050.06;5009474;28;20044;-67
2022/04/20 09:52:09;;;;;;;19.08;15.75;;;;;;;10.56;100.00;100023.97;5008136;28;20034;-66
2022/04/20 09:54:36;;;;;;;15.50;13.85;;;;;;;10.24;100.00;100054.50;5009169;28;20037;-66
2022/04/20 09:57:13;;;;;;;16.33;14.23;;;;;;;10.33;100.00;100006.81;5007834;28;20514;-66
2022/04/20 09:59:54;;;;;;;18.13;16.10;;;;;;;10.09;100.00;99992.16;5009446;28;20030;-66
2022/04/20 10:02:19;;;;;;;19.67;16.70;;;;;;;10.34;100.00;100008.47;5009343;28;20054;-66
2022/04/20 10:04:47;;;;;;;22.00;16.60;;;;;;;10.43;100.00;100037.88;5009088;28;20447;-65
2022/04/20 10:07:13;;;;;;;21.17;16.17;;;;;;;10.26;100.00;100037.50;5007781;28;20041;-66
2022/04/20 10:09:38;;;;;;;18.55;15.40;;;;;;;10.25;100.00;100031.56;5008958;28;20051;-65
2022/04/20 10:12:06;;;;;;;15.88;14.18;;;;;;;10.60;100.00;100024.72;5009222;28;20038;-66
2022/04/20 10:17:23;;;;;;;15.07;13.55;;;;;;;9.54;100.00;99913.19;5008844;28;20044;-66
2022/04/20 10:19:48;;;;;;;16.48;14.75;;;;;;;10.12;100.00;99945.56;5007378;28;20424;-66
2022/04/20 10:22:18;;;;;;;16.80;14.70;;;;;;;10.57;100.00;99979.03;5008972;28;20040;-66
2022/04/20 10:24:45;;;;;;;16.83;14.43;;;;;;;10.69;100.00;99948.19;5008961;28;20204;-67
2022/04/20 10:27:21;;;;;;;17.40;15.60;;;;;;;10.69;100.00;99978.69;5008329;28;20503;-69
2022/04/20 10:29:56;;;;;;;16.67;14.63;;;;;;;10.90;100.00;99978.91;5008559;28;20026;-66
2022/04/20 10:32:24;;;;;;;14.68;13.18;;;;;;;10.84;100.00;99963.84;5012562;28;20036;-66
2022/04/20 10:34:50;;;;;;;15.85;14.10;;;;;;;10.23;100.00;99873.28;5028697;28;20090;-66
2022/04/20 10:37:25;;;;;;;15.88;14.18;;;;;;;10.48;100.00;99968.25;5028546;28;20033;-65
2022/04/20 10:39:53;;;;;;;17.42;14.38;;;;;;;10.34;100.00;99962.72;5028341;28;20079;-65
2022/04/20 10:42:20;;;;;;;14.82;13.25;;;;;;;9.74;100.00;99882.22;5027033;28;20458;-66
2022/04/20 10:45:07;;;;;;;16.55;14.38;;;;;;;10.23;100.00;99956.25;5027772;28;20591;-67
2022/04/20 10:47:36;;;;;;;16.40;14.70;;;;;;;10.13;100.00;99922.66;5028508;28;20044;-65
2022/04/20 10:50:20;;;;;;;19.60;15.57;;;;;;;10.18;100.00;99907.31;5026500;28;20048;-65
2022/04/20 10:55:44;;;;;;;18.35;15.27;;;;;;;10.17;100.00;99936.94;5027929;28;20553;-67
2022/04/20 10:58:21;;;;;;;16.38;14.68;;;;;;;9.52;100.00;99895.47;5020039;28;20525;-64
2022/04/20 11:00:46;;;;;;;20.08;16.13;;;;;;;9.87;100.00;99903.88;5026494;28;20025;-66
2022/04/20 11:03:12;;;;;;;17.08;15.32;;;;;;;9.91;100.00;99925.78;5027652;28;20443;-66
2022/04/20 11:05:57;;;;;;;18.02;16.15;;;;;;;9.89;100.00;99894.50;5027600;28;20025;-65
2022/04/20 11:08:24;;;;;;;25.13;20.40;;;;;;;9.25;100.00;99857.28;5027531;28;20116;-66
2022/04/20 11:18:38;;;;;;;21.70;19.40;;;;;;;10.06;100.00;99940.63;5027727;28;20144;-65
2022/04/20 11:19:12;;;;;;;20.65;18.52;;;;;;;9.50;100.00;99896.38;5027846;28;20041;-67
2022/04/20 11:21:51;;;;;;;18.65;16.77;;;;;;;9.50;100.00;99942.06;5027500;28;20108;-64
2022/04/20 11:24:26;;;;;;;22.33;19.92;;;;;;;9.73;100.00;99937.22;5027113;28;20035;-67
2022/04/20 11:26:54;;;;;;;22.27;19.38;;;;;;;9.31;100.00;99926.44;5027504;28;20025;-66
2022/04/20 11:29:25;;;;;;;22.70;20.27;;;;;;;9.63;100.00;99904.53;5027264;28;20060;-68
2022/04/20 11:31:59;;;;;;;23.33;20.83;;;;;;;9.57;100.00;99905.50;5026934;28;20496;-65
2022/04/20 11:34:27;;;;;;;23.30;20.90;;;;;;;9.45;100.00;99870.28;5006364;28;20038;-67
2022/04/20 11:36:57;;;;;;;23.83;21.33;;;;;;;9.86;100.00;99897.97;5006061;28;20033;-67
2022/04/20 11:39:25;;;;;;;26.67;23.73;;;;;;;9.76;100.00;99881.31;5007905;28;20036;-66
2022/04/20 11:41:53;;;;;;;23.52;20.95;;;;;;;9.69;100.00;99877.25;5006061;28;20474;-64
2022/04/20 11:44:28;;;;;;;23.60;20.50;;;;;;;9.59;100.00;99884.28;5007252;28;20419;-67
2022/04/20 11:47:00;;;;;;;22.25;19.83;;;;;;;9.82;100.00;99863.41;5007514;28;20038;-65
2022/04/20 11:49:33;;;;;;;18.85;16.92;;;;;;;9.52;100.00;99833.75;5007427;28;20038;-66
2022/04/20 11:51:59;;;;;;;19.33;17.23;;;;;;;9.44;100.00;99820.41;5007421;28;20029;-66